createdAt,value
2019-04-14T00:00:40.460Z,25.73
2019-04-14T00:03:15.335Z,27.80
2019-04-14T00:05:49.592Z,27.60
2019-04-14T00:08:22.022Z,27.40
2019-04-14T00:10:53.387Z,28.17
2019-04-14T00:13:26.312Z,27.40
2019-04-14T00:15:58.992Z,26.77
2019-04-14T00:18:29.745Z,28.47
2019-04-14T00:21:04.992Z,28.17
2019-04-14T00:23:37.492Z,28.03
2019-04-14T00:26:31.352Z,26.77
2019-04-14T00:29:02.827Z,26.73
2019-04-14T00:31:34.943Z,26.13
2019-04-14T00:34:07.908Z,26.17
2019-04-14T00:36:48.146Z,25.97
2019-04-14T00:39:29.994Z,26.47
2019-04-14T00:42:06.606Z,25.97
2019-04-14T00:44:41.579Z,24.67
2019-04-14T00:47:19.931Z,26.20
2019-04-14T00:49:52.977Z,24.77
2019-04-14T00:52:23.396Z,25.87
2019-04-14T00:54:54.372Z,26.73
2019-04-14T00:57:25.514Z,26.40
2019-04-14T00:59:57.325Z,26.33
2019-04-14T01:02:29.606Z,26.50
2019-04-14T01:05:06.822Z,24.87
2019-04-14T01:07:37.309Z,25.80
2019-04-14T01:10:08.270Z,25.10
2019-04-14T01:12:41.722Z,25.47
2019-04-14T01:15:11.609Z,26.20
2019-04-14T01:17:42.336Z,24.87
2019-04-14T01:20:13.125Z,26.43
2019-04-14T01:22:44.996Z,24.10
2019-04-14T01:25:19.263Z,26.00
2019-04-14T01:27:47.803Z,26.93
2019-04-14T01:30:18.407Z,26.53
2019-04-14T01:32:56.770Z,26.13
2019-04-14T01:35:27.459Z,26.33
2019-04-14T01:38:01.621Z,25.83
2019-04-14T01:40:33.761Z,25.67
2019-04-14T01:43:04.489Z,24.30
2019-04-14T01:45:35.917Z,23.70
2019-04-14T01:48:06.797Z,25.07
2019-04-14T01:50:45.226Z,25.27
2019-04-14T01:53:42.273Z,26.50
2019-04-14T01:56:15.017Z,26.17
2019-04-14T01:58:51.262Z,26.27
2019-04-14T02:01:23.902Z,26.70
2019-04-14T02:03:56.231Z,26.00
2019-04-14T02:06:27.011Z,25.40
2019-04-14T02:08:58.867Z,25.50
2019-04-14T02:11:31.273Z,25.53
2019-04-14T02:14:06.027Z,25.13
2019-04-14T02:16:41.974Z,25.97
2019-04-14T02:19:09.531Z,24.67
2019-04-14T02:21:41.300Z,25.30
2019-04-14T02:24:17.824Z,26.17
2019-04-14T02:26:46.051Z,25.33
2019-04-14T02:29:16.847Z,26.10
2019-04-14T02:32:17.593Z,24.27
2019-04-14T02:34:47.957Z,26.13
2019-04-14T02:37:24.329Z,24.60
2019-04-14T02:47:44.823Z,23.17
2019-04-14T02:52:34.915Z,24.17
2019-04-14T02:55:04.344Z,23.20
2019-04-14T02:57:38.244Z,26.83
2019-04-14T03:00:16.736Z,24.83
2019-04-14T03:02:44.622Z,23.93
2019-04-14T03:05:24.491Z,23.33
2019-04-14T03:07:54.178Z,25.13
2019-04-14T03:10:33.949Z,22.77
2019-04-14T03:13:09.440Z,23.90
2019-04-14T03:15:39.678Z,23.87
2019-04-14T03:18:33.934Z,24.03
2019-04-14T03:21:04.340Z,23.87
2019-04-14T03:23:50.632Z,24.70
2019-04-14T03:26:23.010Z,24.43
2019-04-14T03:29:10.605Z,23.57
2019-04-14T03:34:30.211Z,23.33
2019-04-14T03:39:23.435Z,24.07
2019-04-14T03:42:00.701Z,22.93
2019-04-14T03:44:37.214Z,23.17
2019-04-14T03:47:06.396Z,24.13
2019-04-14T03:49:56.442Z,24.27
2019-04-14T03:52:15.172Z,24.07
2019-04-14T03:54:33.159Z,23.20
2019-04-14T03:56:53.732Z,23.80
2019-04-14T03:59:24.369Z,24.23
2019-04-14T04:01:56.554Z,23.67
2019-04-14T04:04:29.733Z,23.60
2019-04-14T04:07:01.741Z,23.00
2019-04-14T04:09:34.368Z,22.53
2019-04-14T04:12:05.336Z,23.17
2019-04-14T04:14:38.256Z,22.33
2019-04-14T04:17:21.207Z,23.20
2019-04-14T04:20:08.826Z,22.40
2019-04-14T04:22:57.307Z,23.23
2019-04-14T04:25:33.296Z,23.47
2019-04-14T04:28:06.546Z,23.17
2019-04-14T04:30:38.667Z,23.13
2019-04-14T04:33:10.939Z,23.27
2019-04-14T04:35:52.782Z,22.20
2019-04-14T04:38:25.183Z,23.10
2019-04-14T04:40:57.144Z,24.00
2019-04-14T04:43:27.765Z,22.53
2019-04-14T04:45:58.739Z,22.93
2019-04-14T04:48:29.247Z,23.50
2019-04-14T04:51:00.666Z,22.73
2019-04-14T04:53:31.402Z,22.43
2019-04-14T04:56:01.919Z,22.70
2019-04-14T04:58:32.748Z,24.00
2019-04-14T05:01:05.642Z,22.67
2019-04-14T05:03:36.860Z,22.23
2019-04-14T05:06:46.228Z,22.20
2019-04-14T05:09:21.420Z,23.23
2019-04-14T05:14:47.990Z,21.83
2019-04-14T05:17:23.529Z,22.20
2019-04-14T05:19:54.584Z,22.20
2019-04-14T05:22:26.796Z,22.13
2019-04-14T05:24:57.772Z,21.10
2019-04-14T05:27:28.342Z,21.47
2019-04-14T05:30:02.384Z,21.53
2019-04-14T05:32:32.635Z,21.70
2019-04-14T05:35:07.314Z,22.00
2019-04-14T05:37:37.830Z,21.23
2019-04-14T05:40:10.475Z,21.40
2019-04-14T05:42:42.731Z,22.20
2019-04-14T05:45:13.836Z,21.53
2019-04-14T05:47:44.274Z,21.47
2019-04-14T05:50:16.500Z,21.43
2019-04-14T05:55:39.584Z,21.37
2019-04-14T05:58:10.062Z,20.23
2019-04-14T06:00:42.250Z,21.17
2019-04-14T06:03:16.767Z,21.53
2019-04-14T06:05:47.347Z,20.40
2019-04-14T06:08:20.591Z,21.97
2019-04-14T06:10:51.038Z,21.67
2019-04-14T06:13:21.580Z,22.37
2019-04-14T06:15:54.857Z,20.87
2019-04-14T06:18:28.937Z,22.83
2019-04-14T06:20:59.486Z,22.70
2019-04-14T06:23:31.298Z,21.57
2019-04-14T06:26:02.293Z,21.97
2019-04-14T06:28:32.765Z,21.20
2019-04-14T06:31:18.316Z,21.17
2019-04-14T06:34:07.797Z,21.20
2019-04-14T06:36:58.079Z,21.07
2019-04-14T06:39:30.203Z,21.33
2019-04-14T06:42:01.781Z,21.13
2019-04-14T06:44:32.599Z,22.30
2019-04-14T06:47:03.760Z,21.33
2019-04-14T06:49:34.169Z,21.30
2019-04-14T06:52:05.175Z,20.37
2019-04-14T06:54:36.124Z,21.67
2019-04-14T06:57:06.719Z,21.73
2019-04-14T06:59:37.694Z,20.87
2019-04-14T07:02:08.703Z,21.87
2019-04-14T07:04:39.428Z,21.27
2019-04-14T07:07:10.339Z,20.73
2019-04-14T07:09:41.888Z,21.07
2019-04-14T07:12:14.339Z,19.87
2019-04-14T07:14:44.901Z,19.63
2019-04-14T07:17:15.540Z,22.00
2019-04-14T07:19:46.207Z,21.40
2019-04-14T07:22:16.950Z,20.07
2019-04-14T07:24:50.722Z,21.30
2019-04-14T07:27:22.487Z,21.20
2019-04-14T07:30:01.051Z,21.23
2019-04-14T07:32:33.974Z,20.10
2019-04-14T07:35:12.475Z,21.73
2019-04-14T07:37:47.581Z,20.77
2019-04-14T07:40:23.253Z,21.40
2019-04-14T07:42:55.892Z,20.40
2019-04-14T07:45:27.992Z,21.30
2019-04-14T07:48:00.111Z,20.50
2019-04-14T07:53:34.794Z,19.43
2019-04-14T07:56:18.920Z,19.40
2019-04-14T07:59:03.306Z,18.70
2019-04-14T08:01:51.749Z,20.63
2019-04-14T08:04:23.883Z,19.47
2019-04-14T08:06:54.650Z,19.37
2019-04-14T08:09:25.229Z,19.70
2019-04-14T08:11:55.784Z,20.37
2019-04-14T08:14:26.308Z,20.07
2019-04-14T08:16:57.514Z,19.43
2019-04-14T08:19:28.206Z,18.97
2019-04-14T08:22:04.184Z,18.93
2019-04-14T08:24:35.629Z,18.90
2019-04-14T08:27:08.280Z,18.87
2019-04-14T08:29:39.545Z,18.60
2019-04-14T08:32:10.065Z,19.93
2019-04-14T08:34:45.309Z,19.20
2019-04-14T08:37:17.164Z,18.10
2019-04-14T08:39:50.165Z,18.37
2019-04-14T08:42:22.889Z,18.13
2019-04-14T08:44:55.050Z,18.13
2019-04-14T08:47:27.780Z,17.97
2019-04-14T08:50:03.278Z,18.13
2019-04-14T08:52:38.473Z,18.23
2019-04-14T08:55:22.413Z,17.93
2019-04-14T08:57:57.832Z,18.43
2019-04-14T09:00:33.070Z,17.20
2019-04-14T09:03:14.493Z,17.20
2019-04-14T09:05:47.015Z,17.27
2019-04-14T09:08:19.163Z,16.87
2019-04-14T09:11:01.148Z,16.53
2019-04-14T09:13:31.679Z,16.80
2019-04-14T09:16:02.085Z,15.33
2019-04-14T09:18:32.506Z,16.60
2019-04-14T09:21:03.006Z,15.30
2019-04-14T09:23:33.520Z,16.83
2019-04-14T09:26:04.045Z,15.60
2019-04-14T09:28:34.696Z,13.37
2019-04-14T09:31:05.557Z,13.17
2019-04-14T09:33:36.128Z,13.63
2019-04-14T09:36:08.544Z,12.37
2019-04-14T09:38:39.019Z,12.33
2019-04-14T09:41:09.601Z,11.97
2019-04-14T09:43:41.884Z,11.47
2019-04-14T09:46:16.320Z,13.27
2019-04-14T09:48:48.205Z,13.03
2019-04-14T09:51:20.170Z,13.43
2019-04-14T09:53:50.593Z,13.87
2019-04-14T09:56:21.191Z,13.27
2019-04-14T09:58:52.463Z,12.23
2019-04-14T10:01:24.719Z,12.50
2019-04-14T10:03:55.322Z,12.77
2019-04-14T10:06:25.965Z,12.77
2019-04-14T10:08:56.697Z,13.30
2019-04-14T10:11:27.407Z,13.00
2019-04-14T10:13:58.091Z,13.30
2019-04-14T10:16:28.679Z,13.77
2019-04-14T10:18:59.197Z,12.77
2019-04-14T10:21:29.686Z,12.33
2019-04-14T10:24:00.265Z,11.80
2019-04-14T10:26:30.920Z,13.27
2019-04-14T10:29:01.396Z,13.07
2019-04-14T10:31:31.943Z,12.23
2019-04-14T10:34:02.423Z,12.87
2019-04-14T10:36:33.792Z,12.03
2019-04-14T10:39:06.986Z,12.87
2019-04-14T10:41:37.367Z,12.60
2019-04-14T10:44:07.844Z,11.33
2019-04-14T10:46:38.435Z,11.70
2019-04-14T10:49:09.062Z,12.10
2019-04-14T10:51:39.618Z,11.60
2019-04-14T10:54:10.094Z,12.53
2019-04-14T10:56:40.778Z,11.40
2019-04-14T10:59:11.434Z,11.37
2019-04-14T11:01:42.154Z,11.13
2019-04-14T11:04:13.211Z,11.43
2019-04-14T11:06:45.329Z,10.97
2019-04-14T11:09:16.788Z,10.53
2019-04-14T11:11:47.228Z,9.80
2019-04-14T11:14:17.663Z,10.30
2019-04-14T11:16:48.149Z,11.00
2019-04-14T11:19:18.571Z,9.97
2019-04-14T11:21:49.809Z,10.20
2019-04-14T11:24:20.185Z,10.80
2019-04-14T11:26:51.160Z,10.23
2019-04-14T11:29:21.690Z,10.20
2019-04-14T11:31:56.234Z,10.10
2019-04-14T11:34:45.183Z,10.03
2019-04-14T11:37:30.270Z,9.87
2019-04-14T11:40:06.026Z,9.47
2019-04-14T11:42:36.574Z,10.20
2019-04-14T11:45:08.273Z,10.43
2019-04-14T11:47:39.376Z,9.57
2019-04-14T11:50:11.599Z,9.50
2019-04-14T11:52:42.229Z,10.03
2019-04-14T11:55:15.205Z,9.43
2019-04-14T11:57:45.923Z,9.90
2019-04-14T12:02:57.782Z,9.00
2019-04-14T12:05:37.431Z,8.67
2019-04-14T12:08:27.945Z,9.80
2019-04-14T12:10:58.397Z,8.27
2019-04-14T12:13:29.096Z,9.10
2019-04-14T12:16:00.118Z,8.80
2019-04-14T12:18:30.784Z,8.93
2019-04-14T12:21:02.135Z,8.87
2019-04-14T12:23:32.710Z,8.17
2019-04-14T12:26:05.561Z,9.60
2019-04-14T12:28:38.387Z,9.10
2019-04-14T12:31:10.825Z,9.23
2019-04-14T12:33:41.405Z,10.10
2019-04-14T12:36:14.936Z,9.37
2019-04-14T12:38:45.960Z,9.73
2019-04-14T12:41:18.323Z,9.10
2019-04-14T12:44:06.704Z,8.17
2019-04-14T12:46:41.627Z,8.77
2019-04-14T12:49:16.329Z,8.83
2019-04-14T12:51:54.403Z,9.10
2019-04-14T12:54:26.465Z,8.87
2019-04-14T12:56:56.934Z,8.30
2019-04-14T12:59:28.405Z,8.50
2019-04-14T13:02:06.263Z,8.23
2019-04-14T13:04:38.558Z,8.27
2019-04-14T13:07:09.233Z,7.50
2019-04-14T13:09:40.610Z,8.37
2019-04-14T13:12:11.241Z,7.53
2019-04-14T13:14:42.712Z,7.60
2019-04-14T13:17:13.258Z,7.70
2019-04-14T13:19:44.030Z,7.70
2019-04-14T13:22:15.201Z,7.50
2019-04-14T13:24:45.665Z,7.50
2019-04-14T13:27:17.267Z,7.17
2019-04-14T13:29:47.798Z,7.07
2019-04-14T13:32:18.459Z,6.70
2019-04-14T13:34:48.970Z,7.23
2019-04-14T13:37:21.598Z,7.50
2019-04-14T13:39:52.960Z,7.10
2019-04-14T13:42:23.514Z,7.73
2019-04-14T13:44:53.947Z,7.50
2019-04-14T13:47:25.098Z,7.30
2019-04-14T13:49:56.247Z,7.30
2019-04-14T13:52:26.639Z,6.80
2019-04-14T13:54:57.187Z,7.10
2019-04-14T13:57:27.666Z,10.40
2019-04-14T13:59:58.197Z,6.53
2019-04-14T14:02:28.754Z,6.70
2019-04-14T14:04:59.257Z,6.47
2019-04-14T14:07:30.023Z,6.90
2019-04-14T14:10:03.484Z,6.80
2019-04-14T14:12:35.670Z,7.20
2019-04-14T14:15:26.800Z,7.03
2019-04-14T14:18:01.772Z,6.73
2019-04-14T14:20:50.661Z,7.10
2019-04-14T14:23:23.582Z,6.70
2019-04-14T14:26:01.794Z,7.07
2019-04-14T14:28:32.941Z,7.27
2019-04-14T14:31:03.623Z,6.83
2019-04-14T14:33:34.147Z,7.57
2019-04-14T14:36:04.737Z,8.73
2019-04-14T14:38:35.246Z,8.27
2019-04-14T14:41:08.348Z,7.10
2019-04-14T14:43:38.771Z,6.80
2019-04-14T14:46:22.997Z,7.77
2019-04-14T14:49:07.841Z,7.30
2019-04-14T14:51:52.198Z,7.10
2019-04-14T14:54:23.679Z,7.30
2019-04-14T14:56:54.215Z,7.23
2019-04-14T14:59:24.686Z,7.20
2019-04-14T15:01:55.823Z,7.00
2019-04-14T15:04:26.283Z,6.70
2019-04-14T15:06:56.933Z,6.50
2019-04-14T15:09:27.566Z,7.93
2019-04-14T15:11:59.044Z,6.33
2019-04-14T15:14:32.100Z,6.50
2019-04-14T15:17:02.637Z,6.87
2019-04-14T15:19:33.116Z,6.57
2019-04-14T15:22:07.134Z,7.73
2019-04-14T15:24:37.731Z,7.37
2019-04-14T15:27:10.257Z,7.40
2019-04-14T15:29:41.354Z,7.67
2019-04-14T15:32:13.394Z,8.33
2019-04-14T15:34:44.857Z,8.40
2019-04-14T15:37:16.051Z,8.63
2019-04-14T15:39:49.374Z,8.50
2019-04-14T15:42:21.759Z,8.43
2019-04-14T15:44:52.317Z,8.67
2019-04-14T15:47:23.205Z,9.13
2019-04-14T15:49:54.153Z,8.17
2019-04-14T15:52:25.485Z,9.53
2019-04-14T15:54:56.494Z,9.80
2019-04-14T15:57:32.231Z,9.40
2019-04-14T16:00:22.322Z,9.23
2019-04-14T16:03:10.197Z,10.37
2019-04-14T16:05:45.093Z,9.87
2019-04-14T16:08:17.238Z,9.93
2019-04-14T16:10:49.372Z,9.77
2019-04-14T16:13:24.867Z,10.57
2019-04-14T16:15:57.058Z,9.47
2019-04-14T16:18:33.362Z,10.37
2019-04-14T16:21:03.941Z,9.33
2019-04-14T16:23:34.531Z,8.70
2019-04-14T16:26:15.767Z,9.33
2019-04-14T16:29:04.471Z,9.47
2019-04-14T16:31:39.403Z,9.33
2019-04-14T16:34:18.083Z,9.27
2019-04-14T16:36:50.359Z,9.17
2019-04-14T16:39:20.952Z,9.97
2019-04-14T16:41:51.943Z,9.20
2019-04-14T16:44:24.486Z,8.63
2019-04-14T16:46:54.965Z,9.27
2019-04-14T16:49:25.405Z,8.90
2019-04-14T16:52:03.344Z,9.17
2019-04-14T16:54:47.564Z,8.73
2019-04-14T16:57:28.767Z,8.07
2019-04-14T16:59:58.405Z,8.23
2019-04-14T17:02:29.113Z,9.53
2019-04-14T17:04:59.638Z,8.70
2019-04-14T17:07:30.699Z,8.27
2019-04-14T17:10:08.927Z,7.90
2019-04-14T17:12:39.440Z,8.97
2019-04-14T17:15:17.921Z,8.60
2019-04-14T17:18:05.017Z,8.90
2019-04-14T17:20:53.619Z,8.97
2019-04-14T17:23:40.777Z,9.27
2019-04-14T17:26:28.384Z,8.53
2019-04-14T17:29:00.589Z,8.83
2019-04-14T17:31:38.687Z,8.73
2019-04-14T17:34:13.816Z,8.23
2019-04-14T17:36:46.771Z,8.80
2019-04-14T17:39:31.921Z,9.70
2019-04-14T17:42:06.998Z,8.87
2019-04-14T17:44:56.938Z,9.10
2019-04-14T17:47:45.696Z,9.00
2019-04-14T17:50:18.239Z,7.93
2019-04-14T17:52:50.394Z,8.50
2019-04-14T17:55:34.767Z,9.03
2019-04-14T17:58:07.123Z,8.47
2019-04-14T18:00:51.393Z,8.20
2019-04-14T18:03:39.697Z,7.83
2019-04-14T18:06:14.626Z,8.53
2019-04-14T18:08:49.530Z,8.10
2019-04-14T18:11:21.801Z,8.27
2019-04-14T18:14:12.317Z,8.37
2019-04-14T18:16:53.544Z,7.80
2019-04-14T18:19:25.650Z,8.53
2019-04-14T18:21:56.173Z,8.13
2019-04-14T18:24:26.694Z,8.47
2019-04-14T18:26:57.206Z,9.10
2019-04-14T18:29:33.423Z,9.17
2019-04-14T18:32:08.904Z,9.07
2019-04-14T18:34:53.149Z,8.57
2019-04-14T18:37:31.395Z,8.17
2019-04-14T18:40:11.605Z,8.77
2019-04-14T18:42:50.239Z,8.73
2019-04-14T18:45:30.219Z,9.00
2019-04-14T18:48:09.130Z,7.97
2019-04-14T18:50:41.350Z,9.03
2019-04-14T18:53:16.396Z,8.80
2019-04-14T18:56:04.730Z,9.33
2019-04-14T18:58:42.992Z,8.97
2019-04-14T19:01:15.286Z,9.07
2019-04-14T19:03:45.778Z,9.03
2019-04-14T19:06:16.319Z,8.67
2019-04-14T19:08:47.572Z,8.27
2019-04-14T19:11:25.616Z,9.40
2019-04-14T19:14:03.324Z,8.70
2019-04-14T19:16:39.928Z,9.17
2019-04-14T19:19:11.886Z,8.20
2019-04-14T19:21:44.492Z,8.50
2019-04-14T19:24:14.913Z,8.57
2019-04-14T19:26:48.727Z,8.27
2019-04-14T19:29:27.640Z,8.70
2019-04-14T19:31:57.458Z,8.33
2019-04-14T19:34:31.540Z,8.17
2019-04-14T19:37:03.585Z,8.17
2019-04-14T19:39:37.495Z,8.70
2019-04-14T19:42:08.121Z,8.10
2019-04-14T19:44:39.120Z,7.83
2019-04-14T19:47:10.547Z,7.90
2019-04-14T19:49:41.172Z,8.07
2019-04-14T19:52:11.722Z,7.67
2019-04-14T19:54:42.328Z,7.77
2019-04-14T19:57:12.844Z,7.00
2019-04-14T19:59:43.402Z,7.47
2019-04-14T20:02:14.138Z,7.57
2019-04-14T20:04:44.562Z,7.50
2019-04-14T20:07:15.178Z,7.90
2019-04-14T20:12:47.123Z,7.63
2019-04-14T20:15:22.179Z,7.13
2019-04-14T20:17:55.341Z,7.50
2019-04-14T20:20:34.112Z,8.40
2019-04-14T20:23:12.387Z,8.27
2019-04-14T20:25:51.041Z,7.60
2019-04-14T20:28:29.652Z,8.23
2019-04-14T20:31:01.896Z,7.30
2019-04-14T20:33:32.409Z,7.73
2019-04-14T20:36:05.334Z,7.30
2019-04-14T20:38:37.977Z,8.40
2019-04-14T20:41:08.562Z,7.60
2019-04-14T20:43:39.049Z,7.73
2019-04-14T20:46:09.607Z,7.83
2019-04-14T20:48:40.825Z,7.50
2019-04-14T20:51:11.431Z,7.33
2019-04-14T20:53:42.111Z,7.87
2019-04-14T20:56:13.358Z,7.80
2019-04-14T20:58:46.973Z,7.63
2019-04-14T21:01:16.231Z,7.50
2019-04-14T21:03:48.329Z,7.07
2019-04-14T21:06:23.274Z,7.37
2019-04-14T21:08:55.377Z,7.10
2019-04-14T21:11:30.333Z,7.53
2019-04-14T21:14:15.316Z,7.47
2019-04-14T21:17:05.568Z,6.97
2019-04-14T21:19:46.509Z,7.30
2019-04-14T21:22:18.748Z,7.10
2019-04-14T21:24:50.759Z,8.30
2019-04-14T21:27:22.922Z,7.47
2019-04-14T21:30:04.449Z,7.10
2019-04-14T21:32:53.422Z,7.83
2019-04-14T21:35:29.580Z,7.30
2019-04-14T21:38:01.803Z,8.17
2019-04-14T21:40:43.072Z,7.70
2019-04-14T21:43:13.618Z,7.07
2019-04-14T21:45:44.168Z,7.57
2019-04-14T21:48:14.914Z,7.63
2019-04-14T21:50:46.209Z,7.20
2019-04-14T21:53:16.636Z,7.43
2019-04-14T21:55:51.625Z,7.53
2019-04-14T21:58:26.644Z,7.77
2019-04-14T22:01:39.044Z,7.37
2019-04-14T22:04:11.325Z,7.87
2019-04-14T22:06:43.470Z,7.37
2019-04-14T22:09:15.986Z,8.13
2019-04-14T22:11:46.436Z,8.13
2019-04-14T22:14:17.301Z,9.60
2019-04-14T22:16:47.915Z,8.80
2019-04-14T22:19:19.302Z,7.60
2019-04-14T22:21:51.803Z,7.63
2019-04-14T22:24:22.330Z,7.30
2019-04-14T22:26:52.746Z,7.50
2019-04-14T22:29:23.263Z,7.40
2019-04-14T22:31:53.679Z,7.97
2019-04-14T22:34:25.002Z,7.67
2019-04-14T22:36:55.456Z,7.20
2019-04-14T22:39:26.105Z,7.77
2019-04-14T22:41:56.724Z,7.60
2019-04-14T22:44:27.344Z,8.53
2019-04-14T22:46:57.963Z,7.87
2019-04-14T22:49:30.961Z,7.93
2019-04-14T22:52:02.543Z,7.70
2019-04-14T22:54:33.067Z,7.90
2019-04-14T22:57:04.510Z,7.67
2019-04-14T22:59:35.583Z,7.57
2019-04-14T23:02:08.378Z,7.60
2019-04-14T23:04:50.411Z,7.60
2019-04-14T23:07:29.148Z,8.03
2019-04-14T23:10:01.916Z,8.03
2019-04-14T23:18:35.677Z,8.23
2019-04-14T23:21:07.922Z,8.30
2019-04-14T23:23:57.349Z,7.60
2019-04-14T23:26:27.952Z,7.73
2019-04-14T23:28:58.553Z,7.90
2019-04-14T23:31:29.295Z,8.60
2019-04-14T23:33:59.862Z,8.27
2019-04-14T23:36:30.358Z,7.87
2019-04-14T23:39:00.799Z,7.93
2019-04-14T23:41:31.421Z,8.53
2019-04-14T23:44:02.142Z,8.33
2019-04-14T23:46:33.204Z,8.37
2019-04-14T23:49:04.141Z,8.33
2019-04-14T23:51:34.852Z,8.50
2019-04-14T23:54:06.427Z,8.27
2019-04-14T23:56:37.531Z,9.93
2019-04-14T23:59:12.308Z,8.17
